Time;durP1;ratioP1;P1;durP2;ratioP2;P2;SDS_P1;SDS_P2;PMS_P1;PMS_P2;Temp;Humidity;BMP_temperature;BMP_pressure;BME280_temperature;BME280_humidity;BME280_pressure;Samples;Min_cycle;Max_cycle;Signal;HPM_P1;HPM_P2
2023/07/26 00:00:23;;;;;;;5.65;3.97;;;16.70;63.10;;;;;;5055342;28;20013;-61
2023/07/26 00:02:50;;;;;;;4.80;4.00;;;16.90;63.10;;;;;;5054472;28;20025;-62
2023/07/26 00:05:18;;;;;;;5.15;3.80;;;17.20;62.10;;;;;;5054355;28;20033;-62
2023/07/26 00:07:45;;;;;;;5.50;4.03;;;17.50;62.10;;;;;;5055177;28;20112;-62
2023/07/26 00:10:13;;;;;;;5.25;3.95;;;17.60;61.60;;;;;;5054298;28;20029;-63
2023/07/26 00:12:40;;;;;;;7.18;4.10;;;18.00;61.20;;;;;;5054162;28;20079;-63
2023/07/26 00:15:09;;;;;;;5.25;3.67;;;18.40;59.20;;;;;;5054169;28;20029;-62
2023/07/26 00:17:36;;;;;;;4.72;3.50;;;17.70;60.60;;;;;;5055077;28;20063;-62
2023/07/26 00:20:04;;;;;;;6.10;3.90;;;17.60;59.90;;;;;;5055166;28;20044;-62
2023/07/26 00:22:32;;;;;;;4.10;3.40;;;17.20;61.20;;;;;;5054132;28;20048;-63
2023/07/26 00:25:00;;;;;;;5.45;3.58;;;17.20;62.40;;;;;;5054090;28;20049;-63
2023/07/26 00:27:28;;;;;;;4.40;3.60;;;17.90;60.60;;;;;;5054088;28;20035;-62
2023/07/26 00:29:55;;;;;;;5.07;3.60;;;18.10;59.90;;;;;;5054162;28;20466;-62
2023/07/26 00:32:22;;;;;;;6.00;3.80;;;18.20;60.40;;;;;;5054767;28;20037;-62
2023/07/26 00:34:50;;;;;;;4.93;3.65;;;18.50;59.70;;;;;;5053979;28;20021;-61
2023/07/26 00:37:17;;;;;;;4.50;3.60;;;18.80;58.50;;;;;;5053735;28;20355;-62
2023/07/26 00:39:45;;;;;;;4.93;3.85;;;19.00;58.30;;;;;;5053846;28;20029;-62
2023/07/26 00:42:17;;;;;;;5.32;3.58;;;19.10;58.20;;;;;;5053781;28;20021;-62
2023/07/26 00:44:45;;;;;;;3.97;3.33;;;19.20;57.20;;;;;;5053867;28;20017;-63
2023/07/26 00:47:12;;;;;;;7.32;4.25;;;19.50;57.10;;;;;;5054315;28;20028;-62
2023/07/26 00:49:40;;;;;;;4.90;3.50;;;19.30;57.20;;;;;;5055408;28;20078;-63
2023/07/26 00:52:11;;;;;;;7.45;3.60;;;19.70;57.00;;;;;;5058060;28;20025;-62
2023/07/26 00:54:38;;;;;;;5.20;3.38;;;19.60;56.50;;;;;;5041337;28;20063;-62
2023/07/26 00:57:06;;;;;;;5.00;3.50;;;19.50;56.80;;;;;;5057664;28;20459;-62
2023/07/26 00:59:34;;;;;;;7.78;3.47;;;19.90;56.50;;;;;;5057744;28;20040;-63
2023/07/26 01:02:01;;;;;;;5.22;3.53;;;20.60;55.60;;;;;;5058671;28;20017;-63
2023/07/26 01:04:28;;;;;;;6.55;3.65;;;20.80;54.50;;;;;;5057574;28;20040;-62
2023/07/26 01:07:07;;;;;;;4.40;3.10;;;20.70;53.60;;;;;;5057421;28;20036;-62
2023/07/26 01:09:37;;;;;;;5.55;3.25;;;20.60;54.30;;;;;;5057441;28;20025;-61
2023/07/26 01:12:14;;;;;;;4.90;3.00;;;20.60;55.10;;;;;;5057438;28;20035;-61
2023/07/26 01:15:02;;;;;;;4.95;3.25;;;21.10;53.80;;;;;;5057238;28;20025;-62
2023/07/26 01:17:30;;;;;;;6.40;3.33;;;20.70;54.00;;;;;;5058196;28;20029;-62
2023/07/26 01:19:58;;;;;;;5.20;3.08;;;21.10;53.10;;;;;;5057257;28;20024;-62
2023/07/26 01:22:25;;;;;;;4.85;2.63;;;21.10;53.80;;;;;;5057297;28;20063;-63
2023/07/26 01:24:53;;;;;;;4.45;2.90;;;21.50;52.80;;;;;;5058296;28;20028;-63
2023/07/26 01:27:20;;;;;;;4.00;3.47;;;20.40;54.30;;;;;;5057173;28;20021;-62
2023/07/26 01:29:51;;;;;;;3.75;2.30;;;19.90;55.40;;;;;;5057207;28;20102;-62
2023/07/26 01:32:21;;;;;;;3.15;2.50;;;20.20;55.00;;;;;;5058018;28;20045;-62
2023/07/26 01:34:50;;;;;;;2.83;2.20;;;20.50;54.00;;;;;;5057129;28;20083;-63
2023/07/26 01:37:20;;;;;;;4.30;2.20;;;20.50;54.80;;;;;;5057005;28;20025;-61
2023/07/26 01:39:48;;;;;;;4.35;2.30;;;20.70;54.10;;;;;;5057009;28;20363;-61
2023/07/26 01:42:16;;;;;;;3.28;2.00;;;20.80;53.40;;;;;;5058001;28;20470;-62
2023/07/26 01:44:43;;;;;;;5.43;2.33;;;20.80;53.90;;;;;;5056977;28;20116;-62
2023/07/26 01:47:11;;;;;;;2.72;1.88;;;21.30;51.50;;;;;;5056778;28;20024;-62
2023/07/26 01:49:38;;;;;;;2.78;1.92;;;21.30;51.90;;;;;;5056659;28;20035;-62
2023/07/26 01:52:06;;;;;;;2.75;2.08;;;21.60;52.10;;;;;;5057865;28;20051;-62
2023/07/26 01:54:33;;;;;;;2.42;2.00;;;21.60;51.10;;;;;;5056590;28;20028;-62
2023/07/26 01:57:01;;;;;;;3.97;2.35;;;21.40;50.80;;;;;;5056620;28;20102;-62
2023/07/26 01:59:28;;;;;;;3.55;2.10;;;21.40;50.70;;;;;;5057225;28;20062;-62
2023/07/26 02:01:56;;;;;;;3.10;1.90;;;21.40;50.30;;;;;;5055704;28;20461;-62
2023/07/26 02:04:24;;;;;;;2.80;1.83;;;21.60;51.30;;;;;;5056586;28;20024;-62
2023/07/26 02:06:53;;;;;;;3.00;1.98;;;21.70;49.50;;;;;;5056460;28;20451;-62
2023/07/26 02:09:21;;;;;;;2.85;1.95;;;21.10;49.90;;;;;;5056488;28;20056;-62
2023/07/26 02:11:49;;;;;;;4.88;2.00;;;21.40;49.90;;;;;;5057643;28;20029;-61
2023/07/26 02:14:17;;;;;;;2.78;1.80;;;21.50;50.20;;;;;;5056399;28;20113;-61
2023/07/26 02:16:44;;;;;;;3.40;1.98;;;21.60;50.10;;;;;;5056274;28;20028;-61
2023/07/26 02:19:12;;;;;;;2.30;1.70;;;22.10;48.30;;;;;;5056489;28;20025;-61
2023/07/26 02:21:39;;;;;;;2.60;1.73;;;22.40;48.60;;;;;;5057169;28;20024;-62
2023/07/26 02:24:07;;;;;;;2.85;1.85;;;23.00;47.00;;;;;;5056286;28;20033;-62
2023/07/26 02:26:34;;;;;;;2.80;1.65;;;22.50;46.20;;;;;;5056173;28;20025;-62
2023/07/26 02:29:02;;;;;;;6.28;1.50;;;22.60;46.50;;;;;;5056091;28;20047;-61
2023/07/26 02:31:30;;;;;;;2.28;1.70;;;23.10;46.40;;;;;;5056831;28;20017;-62
2023/07/26 02:33:57;;;;;;;4.22;1.90;;;22.80;46.70;;;;;;5055501;28;20068;-61
2023/07/26 02:36:26;;;;;;;2.50;1.80;;;23.10;47.00;;;;;;5055866;28;20036;-62
2023/07/26 02:38:53;;;;;;;2.17;1.50;;;23.00;46.40;;;;;;5055902;28;20121;-62
2023/07/26 02:41:21;;;;;;;2.42;1.50;;;23.10;46.60;;;;;;5056713;28;20017;-62
2023/07/26 02:43:48;;;;;;;2.53;1.42;;;23.40;47.30;;;;;;5055566;28;20028;-63
2023/07/26 02:46:15;;;;;;;2.88;1.95;;;23.50;45.90;;;;;;5056577;28;20324;-63
2023/07/26 02:48:43;;;;;;;3.05;1.45;;;23.50;45.60;;;;;;5055442;28;20649;-62
2023/07/26 02:51:10;;;;;;;2.80;2.00;;;23.60;45.90;;;;;;5055615;28;20033;-62
2023/07/26 02:53:39;;;;;;;4.43;1.65;;;23.10;44.90;;;;;;5055348;28;20540;-62
2023/07/26 02:56:06;;;;;;;2.90;1.58;;;23.30;44.70;;;;;;5055403;28;20048;-62
2023/07/26 02:58:34;;;;;;;3.00;1.60;;;23.90;44.40;;;;;;5055404;28;20025;-62
2023/07/26 03:01:01;;;;;;;2.13;1.58;;;23.90;44.50;;;;;;5056294;28;20021;-63
2023/07/26 03:03:29;;;;;;;2.65;1.70;;;24.00;43.30;;;;;;5055333;28;20036;-61
2023/07/26 03:05:59;;;;;;;2.38;1.40;;;23.50;44.00;;;;;;5056384;28;20039;-62
2023/07/26 03:08:27;;;;;;;3.42;1.77;;;23.60;44.50;;;;;;5055244;28;20459;-62
2023/07/26 03:10:54;;;;;;;1.83;1.45;;;23.60;44.00;;;;;;5055308;28;20035;-63
2023/07/26 03:13:22;;;;;;;2.60;1.52;;;23.80;44.70;;;;;;5054016;28;20029;-63
2023/07/26 03:15:49;;;;;;;3.35;1.50;;;24.20;43.50;;;;;;5055195;28;20063;-62
2023/07/26 03:18:17;;;;;;;2.92;1.50;;;24.80;42.30;;;;;;5054933;28;20032;-63
2023/07/26 03:20:48;;;;;;;2.78;1.55;;;25.10;40.50;;;;;;5055030;28;20358;-62
2023/07/26 03:23:15;;;;;;;3.20;1.50;;;25.20;40.00;;;;;;5055026;28;20068;-62
2023/07/26 03:25:43;;;;;;;2.72;1.55;;;25.40;40.90;;;;;;5054887;28;20021;-63
2023/07/26 03:28:11;;;;;;;3.42;1.30;;;25.60;40.00;;;;;;5054855;28;20024;-62
2023/07/26 03:30:38;;;;;;;1.73;1.35;;;25.60;37.90;;;;;;5055876;28;20458;-62
2023/07/26 03:33:07;;;;;;;2.90;1.30;;;25.30;38.90;;;;;;5054620;28;20052;-62
2023/07/26 03:35:35;;;;;;;1.63;1.30;;;25.60;36.90;;;;;;5055738;28;20030;-62
2023/07/26 03:38:03;;;;;;;2.05;1.35;;;26.00;38.20;;;;;;5054647;28;20044;-62
2023/07/26 03:40:30;;;;;;;1.77;1.00;;;25.70;37.70;;;;;;5055742;28;20021;-62
2023/07/26 03:42:58;;;;;;;1.80;0.90;;;25.40;36.30;;;;;;5055611;28;20029;-63
2023/07/26 03:45:28;;;;;;;2.92;1.50;;;25.20;35.90;;;;;;5055564;28;20021;-64
2023/07/26 03:47:55;;;;;;;2.25;1.23;;;25.10;37.20;;;;;;5055714;28;20358;-63
2023/07/26 03:50:23;;;;;;;2.00;1.20;;;25.10;37.20;;;;;;5054506;28;20024;-63
2023/07/26 03:52:50;;;;;;;2.97;1.45;;;24.80;38.00;;;;;;5055266;28;20086;-62
2023/07/26 03:55:18;;;;;;;2.15;1.30;;;25.00;37.60;;;;;;5054262;28;20037;-61
2023/07/26 03:57:45;;;;;;;2.13;1.10;;;24.50;38.00;;;;;;5054055;28;20032;-61
2023/07/26 04:00:13;;;;;;;2.55;1.10;;;24.60;39.00;;;;;;5054000;28;20075;-62
2023/07/26 04:02:41;;;;;;;1.30;1.02;;;25.00;37.10;;;;;;5053940;28;20040;-61
2023/07/26 04:05:08;;;;;;;2.08;1.20;;;24.60;38.00;;;;;;5055201;28;20042;-62
2023/07/26 04:07:41;;;;;;;1.63;1.10;;;24.60;36.90;;;;;;5054162;28;20025;-61
2023/07/26 04:10:09;;;;;;;3.05;1.23;;;25.10;36.10;;;;;;5054130;28;20059;-61
2023/07/26 04:12:36;;;;;;;2.05;1.30;;;25.40;35.90;;;;;;5054915;28;20017;-61
2023/07/26 04:15:04;;;;;;;1.23;1.10;;;25.60;36.20;;;;;;5055131;28;20476;-62
2023/07/26 04:17:32;;;;;;;2.08;1.17;;;25.60;36.10;;;;;;5054978;28;20025;-61
2023/07/26 04:20:00;;;;;;;2.17;1.10;;;25.60;34.90;;;;;;5053935;28;20052;-62
2023/07/26 04:22:28;;;;;;;1.83;1.20;;;25.80;34.40;;;;;;5053896;28;20029;-62
2023/07/26 04:24:55;;;;;;;2.67;1.00;;;25.00;35.30;;;;;;5053711;28;20021;-61
2023/07/26 04:27:23;;;;;;;2.08;1.00;;;24.60;35.10;;;;;;5053946;28;20352;-61
2023/07/26 04:29:50;;;;;;;1.63;0.90;;;24.60;35.30;;;;;;5054127;28;20025;-62
2023/07/26 04:32:18;;;;;;;1.25;1.02;;;24.20;35.50;;;;;;5053827;28;20056;-62
2023/07/26 04:34:51;;;;;;;1.50;1.10;;;24.50;35.60;;;;;;5053921;28;20075;-61
2023/07/26 04:37:18;;;;;;;2.20;1.00;;;24.20;35.80;;;;;;5053829;28;20032;-62
2023/07/26 04:39:48;;;;;;;1.30;0.90;;;24.10;35.40;;;;;;5053976;28;20021;-61
2023/07/26 04:42:16;;;;;;;1.85;1.05;;;24.50;35.30;;;;;;5055041;28;20025;-62
2023/07/26 04:44:43;;;;;;;1.40;0.90;;;24.90;34.80;;;;;;5053878;28;20025;-63
2023/07/26 04:47:13;;;;;;;1.92;1.13;;;25.30;35.10;;;;;;5054844;28;20027;-62
2023/07/26 04:49:41;;;;;;;2.38;1.30;;;25.40;34.90;;;;;;5053909;28;20112;-61
2023/07/26 04:52:08;;;;;;;2.30;1.00;;;25.60;34.20;;;;;;5054809;28;20029;-62
2023/07/26 04:54:36;;;;;;;1.30;1.08;;;25.50;33.90;;;;;;5053797;28;20025;-62
2023/07/26 04:57:03;;;;;;;1.38;0.90;;;25.60;34.10;;;;;;5054613;28;20428;-62
2023/07/26 04:59:31;;;;;;;2.38;1.05;;;25.80;34.20;;;;;;5053754;28;20021;-62
2023/07/26 05:01:59;;;;;;;1.95;1.00;;;26.00;33.70;;;;;;5054795;28;20104;-61
2023/07/26 05:04:26;;;;;;;1.02;0.90;;;25.80;34.50;;;;;;5053732;28;20047;-61
2023/07/26 05:06:54;;;;;;;1.45;0.90;;;25.60;33.40;;;;;;5053630;28;20462;-61
2023/07/26 05:09:21;;;;;;;1.52;1.00;;;25.20;34.90;;;;;;5053603;28;20078;-62
2023/07/26 05:11:48;;;;;;;1.42;0.93;;;25.60;34.50;;;;;;5053549;28;20029;-63
2023/07/26 05:14:17;;;;;;;1.35;0.95;;;26.20;33.00;;;;;;5053518;28;20021;-62
2023/07/26 05:16:44;;;;;;;1.80;1.10;;;26.70;32.80;;;;;;5053808;28;20431;-62
2023/07/26 05:19:12;;;;;;;1.55;0.93;;;26.40;33.10;;;;;;5053511;28;20036;-62
2023/07/26 05:21:39;;;;;;;1.67;1.17;;;26.60;33.60;;;;;;5054518;28;20017;-62
2023/07/26 05:24:07;;;;;;;1.73;1.10;;;26.60;33.60;;;;;;5053497;28;20581;-62
2023/07/26 05:26:34;;;;;;;2.60;1.10;;;26.70;33.30;;;;;;5053409;28;20024;-62
2023/07/26 05:29:02;;;;;;;1.33;1.00;;;25.60;34.80;;;;;;5053460;28;20028;-62
2023/07/26 05:31:29;;;;;;;2.10;1.00;;;25.60;34.20;;;;;;5054425;28;20052;-62
2023/07/26 05:33:57;;;;;;;2.95;1.35;;;25.80;34.60;;;;;;5053108;28;20041;-61
2023/07/26 05:36:24;;;;;;;3.75;1.20;;;25.10;35.20;;;;;;5055625;28;20024;-62
2023/07/26 05:38:52;;;;;;;1.33;1.10;;;25.10;35.20;;;;;;5057089;28;20024;-62
2023/07/26 05:41:19;;;;;;;2.72;1.40;;;25.20;35.50;;;;;;5057680;28;20021;-63
2023/07/26 05:43:46;;;;;;;1.80;1.10;;;25.10;35.60;;;;;;5057960;28;20028;-62
2023/07/26 05:46:14;;;;;;;2.47;1.10;;;25.30;35.60;;;;;;5056914;28;20054;-62
2023/07/26 05:48:41;;;;;;;2.38;1.00;;;25.30;35.40;;;;;;5056893;28;20464;-62
2023/07/26 05:51:09;;;;;;;2.20;1.23;;;25.10;35.50;;;;;;5056787;28;20127;-62
2023/07/26 05:53:36;;;;;;;1.77;1.10;;;25.30;35.10;;;;;;5057692;28;20513;-62
2023/07/26 05:56:04;;;;;;;2.10;1.10;;;25.50;35.10;;;;;;5056724;28;20021;-62
2023/07/26 05:58:31;;;;;;;1.92;1.20;;;25.60;35.30;;;;;;5056804;28;20032;-63
2023/07/26 06:00:59;;;;;;;2.35;1.27;;;25.40;35.40;;;;;;5057863;28;20024;-63
2023/07/26 06:03:26;;;;;;;3.03;1.27;;;24.80;35.80;;;;;;5056749;28;20096;-63
2023/07/26 06:05:55;;;;;;;2.05;1.10;;;24.10;37.60;;;;;;5057687;28;20099;-62
2023/07/26 06:08:22;;;;;;;3.15;1.13;;;23.50;38.30;;;;;;5057695;28;20017;-62
2023/07/26 06:10:49;;;;;;;2.13;1.10;;;22.70;39.40;;;;;;5056503;28;20025;-62
2023/07/26 06:13:17;;;;;;;2.75;1.20;;;22.60;39.40;;;;;;5057458;28;20021;-62
2023/07/26 06:15:45;;;;;;;1.60;1.20;;;22.30;39.90;;;;;;5056475;28;20025;-62
2023/07/26 06:18:12;;;;;;;2.42;0.98;;;21.90;40.70;;;;;;5056314;28;20078;-62
2023/07/26 06:20:40;;;;;;;1.98;1.00;;;21.60;41.40;;;;;;5057344;28;20029;-62
2023/07/26 06:23:08;;;;;;;2.38;1.00;;;21.40;41.20;;;;;;5056426;28;20052;-62
2023/07/26 06:25:35;;;;;;;2.42;1.15;;;21.20;42.90;;;;;;5057345;28;20108;-62
2023/07/26 06:28:03;;;;;;;3.88;1.40;;;21.10;43.20;;;;;;5057204;28;20375;-62
2023/07/26 06:30:31;;;;;;;1.75;1.17;;;20.90;42.80;;;;;;5056181;28;20105;-62
2023/07/26 06:32:58;;;;;;;1.35;1.05;;;20.80;43.70;;;;;;5055855;28;20106;-62
2023/07/26 06:35:26;;;;;;;3.40;1.20;;;20.70;43.80;;;;;;5056981;28;20055;-61
2023/07/26 06:37:53;;;;;;;2.15;1.13;;;20.60;43.80;;;;;;5055930;28;20075;-62
2023/07/26 06:40:21;;;;;;;1.73;1.05;;;20.50;44.30;;;;;;5055969;28;20064;-62
2023/07/26 06:42:48;;;;;;;3.30;1.52;;;20.30;45.80;;;;;;5056951;28;20021;-62
2023/07/26 06:45:16;;;;;;;2.05;1.30;;;20.10;46.40;;;;;;5056445;28;20021;-63
2023/07/26 06:47:43;;;;;;;2.63;1.20;;;19.90;46.70;;;;;;5055467;28;20110;-63
2023/07/26 06:50:11;;;;;;;3.50;1.30;;;19.70;47.60;;;;;;5055830;28;20095;-62
2023/07/26 06:52:39;;;;;;;3.05;1.20;;;19.50;48.70;;;;;;5056621;28;20053;-63
2023/07/26 06:55:07;;;;;;;1.70;1.20;;;19.30;50.50;;;;;;5055626;28;20052;-62
2023/07/26 06:57:34;;;;;;;4.45;1.35;;;19.10;50.40;;;;;;5055651;28;20032;-62
2023/07/26 07:00:06;;;;;;;3.17;1.40;;;18.90;52.00;;;;;;5056519;28;20025;-63
2023/07/26 07:02:33;;;;;;;2.88;1.38;;;18.60;52.60;;;;;;5056552;28;20427;-62
2023/07/26 07:05:01;;;;;;;2.63;1.67;;;18.40;53.80;;;;;;5056509;28;20032;-62
2023/07/26 07:07:28;;;;;;;2.70;1.90;;;18.20;54.60;;;;;;5055248;28;20036;-62
2023/07/26 07:09:56;;;;;;;2.72;1.20;;;18.00;55.70;;;;;;5056200;28;20013;-62
2023/07/26 07:12:27;;;;;;;2.67;1.08;;;17.70;57.20;;;;;;5055335;28;20090;-62
2023/07/26 07:14:54;;;;;;;1.95;1.05;;;17.60;57.30;;;;;;5055300;28;20039;-61
2023/07/26 07:17:22;;;;;;;2.05;1.30;;;17.40;57.90;;;;;;5055215;28;20021;-63
2023/07/26 07:19:49;;;;;;;3.03;1.40;;;17.10;58.80;;;;;;5056129;28;20457;-63
2023/07/26 07:22:18;;;;;;;3.50;1.10;;;16.80;59.60;;;;;;5055146;28;20055;-62
2023/07/26 07:24:45;;;;;;;3.17;1.40;;;16.60;59.60;;;;;;5056052;28;20020;-61
2023/07/26 07:27:13;;;;;;;2.08;1.02;;;16.50;60.60;;;;;;5055051;28;20052;-62
2023/07/26 07:29:40;;;;;;;2.05;1.33;;;16.30;60.20;;;;;;5055934;28;20025;-62
2023/07/26 07:32:09;;;;;;;3.10;1.40;;;16.30;60.30;;;;;;5054634;28;20041;-62
2023/07/26 07:34:37;;;;;;;2.45;1.20;;;16.30;61.70;;;;;;5054787;28;20459;-62
2023/07/26 07:37:04;;;;;;;2.97;1.63;;;16.10;61.70;;;;;;5054713;28;20104;-63
2023/07/26 07:39:33;;;;;;;2.83;1.70;;;16.00;61.50;;;;;;5054753;28;20032;-64
2023/07/26 07:42:01;;;;;;;2.42;1.48;;;15.70;61.50;;;;;;5054685;28;20032;-62
2023/07/26 07:44:29;;;;;;;2.78;1.77;;;15.60;61.40;;;;;;5054664;28;20051;-62
2023/07/26 07:46:57;;;;;;;2.83;1.60;;;15.50;62.50;;;;;;5055568;28;20332;-62
2023/07/26 07:49:25;;;;;;;3.65;1.80;;;15.50;62.90;;;;;;5038096;28;20127;-63
2023/07/26 07:51:53;;;;;;;5.38;2.10;;;15.50;63.20;;;;;;5055690;28;20035;-62
2023/07/26 07:54:20;;;;;;;5.03;2.40;;;15.40;63.80;;;;;;5054758;28;20032;-62
2023/07/26 07:56:49;;;;;;;2.50;1.80;;;15.30;63.80;;;;;;5054437;28;20032;-62
2023/07/26 07:59:17;;;;;;;5.15;3.33;;;15.10;64.10;;;;;;5053830;28;20386;-64
2023/07/26 08:01:44;;;;;;;5.10;2.70;;;15.00;64.30;;;;;;5054486;28;20021;-62
2023/07/26 08:04:12;;;;;;;6.50;5.90;;;14.80;65.30;;;;;;5054402;28;20028;-63
2023/07/26 08:06:39;;;;;;;4.72;3.90;;;14.70;65.60;;;;;;5054266;28;20029;-63
2023/07/26 08:09:07;;;;;;;3.80;1.90;;;14.70;65.30;;;;;;5054434;28;20040;-62
2023/07/26 08:11:34;;;;;;;6.70;5.78;;;14.60;66.60;;;;;;5054379;28;20063;-63
2023/07/26 08:14:03;;;;;;;6.65;4.70;;;14.40;66.40;;;;;;5055474;28;20050;-62
2023/07/26 08:16:30;;;;;;;4.32;3.00;;;14.30;66.20;;;;;;5054469;28;20028;-62
2023/07/26 08:19:01;;;;;;;3.78;2.65;;;14.10;66.60;;;;;;5055253;28;20052;-62
2023/07/26 08:21:28;;;;;;;5.75;3.55;;;14.00;66.00;;;;;;5054290;28;20021;-62
2023/07/26 08:23:56;;;;;;;4.35;3.35;;;13.90;66.30;;;;;;5054233;28;20111;-64
2023/07/26 08:26:23;;;;;;;7.63;4.28;;;13.80;66.40;;;;;;5053953;28;20021;-62
2023/07/26 08:28:51;;;;;;;5.70;4.05;;;13.80;67.30;;;;;;5054092;28;20028;-63
2023/07/26 08:31:18;;;;;;;5.68;3.70;;;13.90;67.30;;;;;;5054004;28;20037;-63
2023/07/26 08:33:46;;;;;;;5.95;3.35;;;13.80;67.30;;;;;;5054689;28;20539;-62
2023/07/26 08:36:14;;;;;;;4.72;3.25;;;13.80;67.60;;;;;;5054938;28;20428;-63
2023/07/26 08:38:41;;;;;;;2.97;2.28;;;13.80;68.40;;;;;;5054068;28;20324;-63
2023/07/26 08:41:09;;;;;;;3.17;2.25;;;13.60;68.60;;;;;;5054066;28;20112;-63
2023/07/26 08:43:37;;;;;;;3.63;2.38;;;13.60;68.60;;;;;;5053930;28;20033;-62
2023/07/26 08:46:08;;;;;;;3.90;2.50;;;13.50;68.70;;;;;;5054686;28;20328;-63
2023/07/26 08:48:37;;;;;;;4.63;2.47;;;13.40;69.00;;;;;;5054812;28;20025;-63
2023/07/26 08:51:07;;;;;;;5.32;2.65;;;13.40;68.90;;;;;;5053718;28;20036;-63
2023/07/26 08:53:35;;;;;;;5.53;2.90;;;13.40;69.10;;;;;;5053700;28;20025;-63
2023/07/26 08:56:03;;;;;;;5.10;3.13;;;13.30;69.50;;;;;;5053815;28;20033;-62
2023/07/26 08:58:31;;;;;;;4.72;3.13;;;13.20;69.90;;;;;;5058917;28;20108;-64
2023/07/26 09:00:59;;;;;;;3.55;2.90;;;13.10;69.80;;;;;;5067016;28;20017;-63
2023/07/26 09:03:27;;;;;;;4.90;3.38;;;13.10;70.40;;;;;;5073721;28;20020;-61
2023/07/26 09:06:08;;;;;;;5.43;3.42;;;13.00;70.80;;;;;;5073981;28;20028;-63
2023/07/26 09:08:36;;;;;;;6.45;3.63;;;13.00;70.80;;;;;;5074144;28;20124;-63
2023/07/26 09:11:26;;;;;;;5.72;3.67;;;13.00;70.70;;;;;;5077752;28;20067;-63
2023/07/26 09:14:01;;;;;;;5.65;3.70;;;13.00;71.30;;;;;;5062518;28;20078;-63
2023/07/26 09:16:31;;;;;;;5.82;3.95;;;12.90;71.40;;;;;;5079198;28;20061;-62
2023/07/26 09:19:05;;;;;;;6.25;3.85;;;12.70;72.40;;;;;;5079223;28;20107;-68
2023/07/26 09:21:35;;;;;;;6.10;3.85;;;12.50;72.60;;;;;;5078952;28;20012;-69
2023/07/26 09:24:04;;;;;;;6.93;4.53;;;12.50;72.80;;;;;;5079463;28;20046;-67
2023/07/26 09:26:37;;;;;;;7.97;4.22;;;12.40;73.50;;;;;;5077984;28;20036;-68
2023/07/26 09:29:16;;;;;;;5.82;3.90;;;12.40;73.80;;;;;;5062715;28;20374;-69
2023/07/26 09:31:44;;;;;;;7.15;3.95;;;12.20;73.90;;;;;;5058105;28;20115;-67
2023/07/26 09:34:16;;;;;;;6.85;4.60;;;12.10;73.80;;;;;;5057893;28;20109;-63
2023/07/26 09:36:46;;;;;;;8.02;4.55;;;12.10;73.80;;;;;;5058679;28;20448;-63
2023/07/26 09:39:15;;;;;;;5.90;4.18;;;12.00;73.70;;;;;;5057254;28;20078;-63
2023/07/26 09:41:45;;;;;;;6.80;4.15;;;11.90;73.70;;;;;;5057327;28;20025;-62
2023/07/26 09:44:20;;;;;;;7.15;4.85;;;11.80;74.10;;;;;;5056981;28;20032;-63
2023/07/26 09:46:58;;;;;;;8.40;4.65;;;11.80;74.20;;;;;;5057077;28;20025;-61
2023/07/26 09:49:27;;;;;;;6.63;4.57;;;11.80;74.80;;;;;;5058474;28;20412;-66
2023/07/26 09:51:58;;;;;;;8.20;4.45;;;11.80;74.80;;;;;;5041143;28;20044;-63
2023/07/26 09:54:30;;;;;;;9.73;5.15;;;11.70;75.10;;;;;;5058567;28;20025;-62
2023/07/26 09:56:58;;;;;;;9.20;5.57;;;11.70;75.00;;;;;;5057478;28;20082;-65
2023/07/26 09:59:28;;;;;;;8.70;5.35;;;11.70;75.20;;;;;;5058173;28;20028;-65
2023/07/26 10:01:59;;;;;;;6.95;4.72;;;11.60;75.20;;;;;;5058424;28;20086;-64
2023/07/26 10:04:41;;;;;;;7.20;5.10;;;11.50;75.70;;;;;;5058480;28;20363;-66
2023/07/26 10:07:12;;;;;;;8.02;5.93;;;11.50;75.80;;;;;;5057448;28;20044;-62
2023/07/26 10:09:46;;;;;;;8.52;5.60;;;11.40;75.80;;;;;;5057700;28;20037;-62
2023/07/26 10:12:15;;;;;;;9.18;5.05;;;11.40;75.80;;;;;;5056484;28;20025;-61
2023/07/26 10:14:43;;;;;;;8.45;6.05;;;11.30;75.30;;;;;;5057530;28;20040;-71
2023/07/26 10:17:14;;;;;;;9.80;6.00;;;11.10;75.40;;;;;;5056330;28;20025;-64
2023/07/26 10:19:44;;;;;;;9.30;6.20;;;11.10;76.10;;;;;;5057372;28;20104;-67
2023/07/26 10:22:12;;;;;;;8.40;5.65;;;11.10;76.20;;;;;;5055666;28;20021;-62
2023/07/26 10:24:44;;;;;;;9.48;6.45;;;11.00;76.00;;;;;;5056217;28;20048;-67
2023/07/26 10:27:12;;;;;;;;;;;11.00;76.30;;;;;;5057541;28;20095;-65
2023/07/26 10:29:40;;;;;;;11.02;7.05;;;11.00;77.60;;;;;;5055957;28;19937;-67
2023/07/26 10:32:08;;;;;;;8.40;6.00;;;10.80;78.00;;;;;;5056897;28;20029;-67
2023/07/26 10:34:36;;;;;;;9.20;5.60;;;10.70;78.20;;;;;;5056059;28;20032;-63
2023/07/26 10:37:18;;;;;;;8.88;6.18;;;10.60;78.80;;;;;;5056857;28;20051;-63
2023/07/26 10:39:46;;;;;;;8.73;5.75;;;10.60;79.20;;;;;;5056952;28;20017;-62
2023/07/26 10:42:28;;;;;;;9.05;6.22;;;10.50;79.50;;;;;;5056057;28;20036;-63
2023/07/26 10:45:00;;;;;;;7.72;5.53;;;10.40;79.80;;;;;;5056914;28;20059;-63
2023/07/26 10:47:27;;;;;;;9.07;6.10;;;10.30;80.00;;;;;;5039310;28;20029;-62
2023/07/26 10:49:57;;;;;;;10.65;6.95;;;10.40;80.00;;;;;;5056004;28;20530;-65
2023/07/26 10:52:37;;;;;;;16.45;9.40;;;10.30;79.80;;;;;;5055698;28;20071;-61
2023/07/26 10:55:23;;;;;;;13.40;8.55;;;10.30;80.40;;;;;;5039714;28;20117;-66
2023/07/26 10:57:51;;;;;;;10.07;7.07;;;10.30;80.20;;;;;;5056412;28;20519;-66
2023/07/26 11:00:23;;;;;;;9.82;6.70;;;10.30;80.00;;;;;;5055491;28;20029;-66
2023/07/26 11:03:00;;;;;;;8.45;6.13;;;10.20;80.60;;;;;;5055514;28;20469;-63
2023/07/26 11:05:32;;;;;;;11.00;5.95;;;10.10;80.50;;;;;;5055544;28;20025;-66
2023/07/26 11:08:03;;;;;;;10.60;6.60;;;10.00;80.90;;;;;;5055441;28;20478;-67
2023/07/26 11:10:31;;;;;;;10.30;6.30;;;10.00;81.60;;;;;;5056436;28;20483;-66
2023/07/26 11:13:19;;;;;;;10.10;6.53;;;10.00;81.00;;;;;;5056304;28;20394;-67
2023/07/26 11:15:50;;;;;;;12.00;7.50;;;10.00;80.80;;;;;;5056537;28;20474;-66
2023/07/26 11:18:19;;;;;;;9.77;6.95;;;9.90;80.90;;;;;;5055460;28;20021;-66
2023/07/26 11:20:52;;;;;;;11.77;7.40;;;9.80;80.40;;;;;;5055751;28;20111;-66
2023/07/26 11:23:28;;;;;;;10.73;7.30;;;9.70;80.70;;;;;;5055626;28;20028;-66
2023/07/26 11:25:58;;;;;;;11.65;7.90;;;9.80;80.40;;;;;;5039291;28;20028;-66
2023/07/26 11:28:35;;;;;;;11.02;7.40;;;9.80;81.10;;;;;;5054843;28;20028;-66
2023/07/26 11:31:02;;;;;;;9.98;6.68;;;9.80;81.40;;;;;;5055034;28;20093;-64
2023/07/26 11:33:39;;;;;;;9.82;6.80;;;9.70;81.10;;;;;;5054798;28;20055;-66
2023/07/26 11:36:08;;;;;;;11.85;7.50;;;9.70;81.00;;;;;;5056014;28;20013;-66
2023/07/26 11:38:35;;;;;;;9.27;7.38;;;9.60;81.60;;;;;;5054993;28;20495;-66
2023/07/26 11:41:03;;;;;;;10.82;7.65;;;9.60;82.30;;;;;;5055219;28;20028;-66
2023/07/26 11:43:31;;;;;;;10.48;6.93;;;9.50;82.40;;;;;;5056177;28;20115;-67
2023/07/26 11:45:59;;;;;;;11.93;7.40;;;9.40;82.50;;;;;;5055218;28;20035;-66
2023/07/26 11:48:32;;;;;;;8.98;6.38;;;9.40;82.30;;;;;;5055979;28;20021;-67
2023/07/26 11:51:02;;;;;;;12.32;7.15;;;9.40;82.10;;;;;;5054873;28;20398;-66
2023/07/26 11:53:32;;;;;;;9.98;6.97;;;9.40;82.30;;;;;;5054616;28;20024;-66
2023/07/26 11:56:01;;;;;;;9.90;7.13;;;9.50;82.10;;;;;;5054699;28;20039;-67
2023/07/26 11:58:34;;;;;;;10.77;6.97;;;9.50;81.90;;;;;;5054935;28;20025;-66
2023/07/26 12:01:03;;;;;;;12.82;7.50;;;9.30;81.50;;;;;;5055576;28;20075;-66
2023/07/26 12:03:31;;;;;;;13.13;7.75;;;9.30;82.40;;;;;;5055257;28;20370;-66
2023/07/26 12:05:59;;;;;;;14.77;8.68;;;9.40;82.50;;;;;;5055847;28;20036;-66
2023/07/26 12:08:29;;;;;;;13.45;9.15;;;9.40;82.50;;;;;;5057085;28;20039;-67
2023/07/26 12:11:02;;;;;;;15.02;8.82;;;9.40;82.10;;;;;;5059028;28;20048;-66
2023/07/26 12:13:34;;;;;;;15.25;9.73;;;9.40;82.50;;;;;;5062540;28;20032;-65
2023/07/26 12:16:04;;;;;;;15.73;8.52;;;9.40;82.10;;;;;;5058506;28;20049;-67
2023/07/26 12:18:31;;;;;;;14.30;8.63;;;9.40;82.20;;;;;;5054581;28;20096;-67
2023/07/26 12:21:08;;;;;;;12.35;8.07;;;9.40;82.20;;;;;;5054197;28;20028;-67
2023/07/26 12:23:57;;;;;;;13.85;8.00;;;9.30;82.10;;;;;;5054265;28;20032;-67
2023/07/26 12:26:29;;;;;;;13.30;8.93;;;9.20;82.70;;;;;;5055137;28;20116;-67
2023/07/26 12:28:58;;;;;;;14.55;9.15;;;9.20;83.20;;;;;;5054364;28;20036;-67
2023/07/26 12:31:32;;;;;;;12.82;8.32;;;9.10;82.90;;;;;;5054104;28;20060;-66
2023/07/26 12:34:06;;;;;;;13.68;8.32;;;9.10;82.90;;;;;;5053926;28;20076;-67
2023/07/26 12:36:45;;;;;;;14.15;8.40;;;9.10;82.80;;;;;;5054085;28;20439;-66
2023/07/26 12:39:15;;;;;;;11.23;7.80;;;9.00;82.60;;;;;;5054980;28;20036;-66
2023/07/26 12:41:44;;;;;;;11.98;7.50;;;9.00;82.80;;;;;;5054058;28;20025;-66
2023/07/26 12:44:14;;;;;;;13.15;9.20;;;9.00;82.80;;;;;;5054355;28;20451;-67
2023/07/26 12:46:46;;;;;;;11.80;8.30;;;9.00;83.10;;;;;;5037293;28;20040;-67
2023/07/26 12:49:14;;;;;;;11.75;7.97;;;8.90;83.20;;;;;;5055166;28;20028;-67
2023/07/26 12:51:42;;;;;;;13.35;10.10;;;8.80;83.40;;;;;;5053913;28;20455;-66
2023/07/26 12:54:09;;;;;;;14.45;9.15;;;8.70;83.80;;;;;;5055265;28;20049;-67
2023/07/26 12:56:36;;;;;;;13.27;8.57;;;8.60;83.10;;;;;;5053848;28;20447;-67